createdAt,value
2018-07-02T00:00:50.304Z,3.53
2018-07-02T00:06:05.734Z,3.17
2018-07-02T00:11:09.740Z,3.00
2018-07-02T00:16:13.771Z,2.80
2018-07-02T00:21:17.771Z,3.07
2018-07-02T00:26:21.963Z,3.40
2018-07-02T00:31:26.004Z,2.53
2018-07-02T00:36:29.769Z,3.17
2018-07-02T00:41:33.639Z,3.33
2018-07-02T00:46:37.648Z,3.83
2018-07-02T00:51:41.643Z,3.53
2018-07-02T00:56:45.643Z,3.47
2018-07-02T01:01:49.668Z,3.30
2018-07-02T01:06:53.791Z,3.37
2018-07-02T01:11:57.836Z,3.20
2018-07-02T01:17:04.237Z,3.40
2018-07-02T01:22:08.479Z,2.80
2018-07-02T01:27:12.468Z,3.40
2018-07-02T01:32:16.512Z,3.13
2018-07-02T01:37:20.520Z,3.03
2018-07-02T01:42:24.250Z,2.90
2018-07-02T01:47:28.172Z,2.90
2018-07-02T01:52:32.150Z,3.27
2018-07-02T01:57:36.131Z,2.63
2018-07-02T02:02:40.177Z,3.07
2018-07-02T02:07:44.181Z,2.50
2018-07-02T02:12:48.269Z,2.43
2018-07-02T02:17:52.335Z,2.97
2018-07-02T02:22:56.373Z,2.53
2018-07-02T02:28:00.343Z,2.53
2018-07-02T02:33:04.132Z,2.70
2018-07-02T02:38:08.021Z,2.43
2018-07-02T02:43:12.025Z,2.93
2018-07-02T02:48:16.025Z,2.70
2018-07-02T02:53:20.009Z,2.53
2018-07-02T02:58:24.028Z,2.50
2018-07-02T03:03:28.035Z,2.53
2018-07-02T03:08:32.050Z,2.50
2018-07-02T03:13:36.979Z,2.53
2018-07-02T03:18:40.972Z,2.40
2018-07-02T03:23:44.972Z,2.03
2018-07-02T03:28:48.951Z,2.40
2018-07-02T03:33:52.938Z,2.30
2018-07-02T03:38:56.976Z,2.50
2018-07-02T03:44:00.983Z,1.80
2018-07-02T03:49:05.007Z,2.03
2018-07-02T03:54:09.041Z,1.90
2018-07-02T03:59:13.048Z,2.00
2018-07-02T04:04:17.080Z,1.93
2018-07-02T04:09:21.843Z,1.90
2018-07-02T04:14:25.647Z,1.73
2018-07-02T04:19:29.567Z,1.83
2018-07-02T04:24:33.538Z,1.87
2018-07-02T04:29:37.559Z,2.00
2018-07-02T04:34:41.346Z,2.10
2018-07-02T04:39:45.222Z,2.00
2018-07-02T04:44:49.575Z,1.77
2018-07-02T04:49:53.439Z,2.00
2018-07-02T04:54:57.450Z,1.70
2018-07-02T05:00:01.465Z,1.50
2018-07-02T05:05:05.549Z,1.60
2018-07-02T05:10:09.571Z,1.50
2018-07-02T05:15:13.708Z,1.70
2018-07-02T05:20:17.728Z,1.67
2018-07-02T05:25:21.732Z,1.50
2018-07-02T05:30:25.731Z,1.47
2018-07-02T05:35:29.739Z,1.40
2018-07-02T05:40:33.747Z,1.30
2018-07-02T05:45:37.747Z,1.27
2018-07-02T05:50:41.743Z,1.20
2018-07-02T05:55:45.778Z,1.50
2018-07-02T06:00:49.805Z,1.30
2018-07-02T06:05:53.824Z,1.13
2018-07-02T06:10:57.851Z,1.27
2018-07-02T06:16:01.922Z,1.23
2018-07-02T06:21:07.945Z,1.30
2018-07-02T06:26:11.941Z,1.30
2018-07-02T06:31:15.939Z,1.47
2018-07-02T06:36:20.128Z,1.50
2018-07-02T06:41:24.147Z,1.40
2018-07-02T06:46:28.175Z,1.23
2018-07-02T06:51:32.182Z,1.60
2018-07-02T06:56:36.195Z,1.40
2018-07-02T07:01:40.211Z,1.10
2018-07-02T07:06:45.152Z,1.30
2018-07-02T07:11:49.915Z,1.10
2018-07-02T07:16:54.867Z,1.30
2018-07-02T07:21:58.928Z,1.20
2018-07-02T07:27:02.908Z,1.07
2018-07-02T07:32:06.931Z,1.20
2018-07-02T07:37:10.944Z,1.30
2018-07-02T07:42:15.005Z,1.20
2018-07-02T07:47:19.020Z,0.97
2018-07-02T07:52:24.323Z,1.33
2018-07-02T07:57:28.351Z,1.50
2018-07-02T08:02:32.367Z,1.20
2018-07-02T08:07:36.371Z,1.70
2018-07-02T08:12:40.355Z,1.20
2018-07-02T08:17:44.381Z,1.20
2018-07-02T08:22:48.420Z,1.13
2018-07-02T08:27:52.428Z,1.30
2018-07-02T08:32:56.253Z,1.63
2018-07-02T08:38:00.080Z,1.10
2018-07-02T08:43:04.067Z,1.10
2018-07-02T08:48:08.091Z,1.20
2018-07-02T08:53:12.935Z,1.10
2018-07-02T08:58:16.980Z,0.90
2018-07-02T09:03:21.079Z,0.77
2018-07-02T09:08:25.103Z,1.10
2018-07-02T09:13:29.123Z,0.87
2018-07-02T09:18:33.268Z,0.80
2018-07-02T09:23:37.252Z,0.93
2018-07-02T09:28:41.264Z,0.80
2018-07-02T09:33:45.704Z,0.90
2018-07-02T09:38:49.767Z,0.53
2018-07-02T09:43:54.075Z,1.03
2018-07-02T09:48:58.076Z,0.90
2018-07-02T09:54:02.272Z,1.20
2018-07-02T09:59:06.292Z,1.10
2018-07-02T10:04:10.048Z,1.00
2018-07-02T10:09:13.949Z,1.30
2018-07-02T10:14:17.975Z,1.27
2018-07-02T10:19:22.005Z,0.80
2018-07-02T10:24:26.021Z,1.00
2018-07-02T10:29:30.024Z,1.00
2018-07-02T10:34:34.072Z,0.93
2018-07-02T10:39:38.100Z,1.00
2018-07-02T10:44:42.115Z,0.90
2018-07-02T10:49:46.126Z,0.87
2018-07-02T10:54:50.119Z,0.90
2018-07-02T10:59:54.147Z,0.80
2018-07-02T11:04:58.939Z,1.00
2018-07-02T11:10:03.891Z,1.00
2018-07-02T11:15:07.911Z,0.93
2018-07-02T11:20:12.110Z,1.20
2018-07-02T11:25:16.111Z,1.13
2018-07-02T11:30:20.196Z,0.77
2018-07-02T11:35:24.208Z,1.13
2018-07-02T11:40:28.198Z,0.97
2018-07-02T11:45:32.827Z,0.93
2018-07-02T11:50:36.857Z,0.73
2018-07-02T11:55:40.857Z,1.10
2018-07-02T12:00:44.846Z,0.90
2018-07-02T12:05:48.836Z,1.00
2018-07-02T12:10:52.863Z,1.00
2018-07-02T12:15:56.647Z,0.97
2018-07-02T12:21:00.532Z,0.80
2018-07-02T12:26:04.448Z,0.73
2018-07-02T12:31:09.172Z,0.80
2018-07-02T12:36:13.172Z,0.70
2018-07-02T12:41:17.285Z,1.37
2018-07-02T12:46:21.221Z,1.10
2018-07-02T12:51:25.335Z,1.00
2018-07-02T12:56:29.351Z,1.00
2018-07-02T13:01:34.248Z,0.90
2018-07-02T13:06:39.017Z,1.10
2018-07-02T13:11:43.001Z,0.80
2018-07-02T13:16:46.795Z,1.10
2018-07-02T13:21:51.666Z,0.90
2018-07-02T13:26:55.680Z,1.00
2018-07-02T13:31:59.647Z,0.90
2018-07-02T13:37:03.648Z,1.00
2018-07-02T13:42:07.676Z,0.80
2018-07-02T13:47:11.671Z,1.00
2018-07-02T13:52:15.676Z,1.00
2018-07-02T13:57:19.723Z,0.90
2018-07-02T14:02:23.527Z,0.80
2018-07-02T14:07:27.433Z,1.13
2018-07-02T14:12:31.401Z,1.20
2018-07-02T14:17:35.500Z,0.70
2018-07-02T14:22:39.519Z,0.93
2018-07-02T14:27:43.547Z,0.80
2018-07-02T14:32:47.600Z,1.10
2018-07-02T14:37:51.580Z,0.80
2018-07-02T14:42:55.698Z,1.10
2018-07-02T14:48:00.607Z,1.40
2018-07-02T14:53:04.612Z,0.97
2018-07-02T14:58:08.643Z,1.10
2018-07-02T15:03:12.736Z,1.23
2018-07-02T15:08:17.600Z,0.97
2018-07-02T15:13:22.490Z,1.00
2018-07-02T15:18:26.514Z,0.83
2018-07-02T15:23:30.579Z,1.10
2018-07-02T15:28:35.327Z,1.10
2018-07-02T15:33:39.338Z,0.90
2018-07-02T15:38:43.407Z,0.93
2018-07-02T15:43:47.497Z,0.70
2018-07-02T15:48:51.540Z,0.70
2018-07-02T15:53:55.752Z,0.73
2018-07-02T15:58:59.767Z,1.00
2018-07-02T16:04:03.771Z,1.10
2018-07-02T16:09:08.668Z,0.90
2018-07-02T16:14:12.370Z,0.90
2018-07-02T16:19:16.406Z,0.80
2018-07-02T16:24:20.447Z,0.93
2018-07-02T16:29:24.509Z,1.17
2018-07-02T16:34:28.449Z,1.00
2018-07-02T16:39:32.478Z,1.10
2018-07-02T16:44:36.488Z,1.13
2018-07-02T16:49:40.515Z,1.20
2018-07-02T16:54:44.331Z,1.17
2018-07-02T16:59:48.197Z,1.10
2018-07-02T17:04:52.199Z,1.20
2018-07-02T17:09:56.207Z,1.27
2018-07-02T17:14:59.979Z,1.17
2018-07-02T17:20:04.389Z,1.20
2018-07-02T17:25:08.492Z,1.40
2018-07-02T17:30:12.567Z,1.27
2018-07-02T17:35:16.588Z,1.57
2018-07-02T17:40:20.627Z,1.10
2018-07-02T17:45:24.668Z,1.30
2018-07-02T17:50:28.797Z,1.50
2018-07-02T17:55:32.880Z,1.00
2018-07-02T18:00:36.892Z,1.37
2018-07-02T18:05:40.819Z,1.30
2018-07-02T18:10:44.755Z,1.20
2018-07-02T18:15:48.759Z,1.00
2018-07-02T18:20:52.760Z,1.03
2018-07-02T18:25:57.552Z,1.03
2018-07-02T18:31:01.550Z,1.10
2018-07-02T18:36:06.334Z,1.90
2018-07-02T18:41:10.352Z,1.43
2018-07-02T18:46:20.284Z,1.10
2018-07-02T18:51:30.382Z,1.03
2018-07-02T18:56:35.220Z,1.43
2018-07-02T19:01:39.228Z,1.20
2018-07-02T19:06:43.220Z,1.20
2018-07-02T19:11:47.231Z,1.17
2018-07-02T19:16:51.228Z,1.23
2018-07-02T19:21:56.072Z,1.03
2018-07-02T19:27:00.236Z,1.07
2018-07-02T19:32:04.243Z,0.90
2018-07-02T19:37:08.237Z,1.00
2018-07-02T19:42:12.270Z,1.40
2018-07-02T19:47:16.335Z,1.20
2018-07-02T19:52:20.348Z,1.37
2018-07-02T19:57:24.383Z,1.20
2018-07-02T20:02:28.392Z,1.40
2018-07-02T20:07:34.100Z,1.00
2018-07-02T20:12:38.104Z,1.30
2018-07-02T20:17:41.927Z,1.43
2018-07-02T20:22:46.573Z,1.47
2018-07-02T20:27:50.591Z,1.60
2018-07-02T20:32:54.593Z,1.80
2018-07-02T20:37:58.602Z,1.63
2018-07-02T20:43:02.611Z,1.77
2018-07-02T20:48:06.679Z,1.80
2018-07-02T20:53:10.759Z,1.40
2018-07-02T20:58:14.525Z,1.53
2018-07-02T21:03:18.440Z,1.37
2018-07-02T21:08:25.958Z,1.70
2018-07-02T21:13:29.974Z,1.60
2018-07-02T21:18:34.013Z,1.60
2018-07-02T21:23:38.012Z,1.50
2018-07-02T21:28:43.285Z,1.90
2018-07-02T21:33:48.121Z,1.43
2018-07-02T21:38:52.269Z,1.20
2018-07-02T21:43:55.982Z,1.20
2018-07-02T21:49:00.101Z,1.33
2018-07-02T21:54:04.126Z,1.00
2018-07-02T21:59:08.851Z,1.43
2018-07-02T22:04:12.830Z,1.00
2018-07-02T22:09:17.808Z,1.37
2018-07-02T22:14:21.567Z,1.10
2018-07-02T22:19:25.484Z,1.23
2018-07-02T22:24:29.468Z,1.10
2018-07-02T22:29:33.511Z,1.07
2018-07-02T22:34:37.535Z,1.00
2018-07-02T22:39:56.430Z,1.30
2018-07-02T22:45:00.429Z,1.20
2018-07-02T22:50:04.432Z,1.00
2018-07-02T22:55:08.416Z,1.10
2018-07-02T23:00:13.883Z,1.23
2018-07-02T23:05:17.891Z,1.27
2018-07-02T23:10:21.911Z,1.23
2018-07-02T23:15:25.928Z,1.40
2018-07-02T23:20:29.931Z,1.07
2018-07-02T23:25:33.676Z,1.00
2018-07-02T23:30:37.576Z,1.23
2018-07-02T23:35:41.318Z,1.30
2018-07-02T23:40:45.224Z,1.03
2018-07-02T23:45:49.227Z,1.17
2018-07-02T23:50:53.228Z,1.20
2018-07-02T23:55:57.240Z,1.30
